Terminal Aerodrome Forecast
Issued by NWS Duluth, MN

Home | Current Version | Previous Version | Text Only | Print | Product List | Glossary On
Versions: 1 2 3 4 5 6 7 8 9 10 11 12 13 14 15 16 17 18 19 20 21 22 23
000
FTUS43 KDLH 222300
TAFINL
TAF
KINL 222336Z 2300/2324 11007KT 6SM -DZSN BR OVC007
      TEMPO 2300/2304 3SM -SNDZ BR OVC004
     FM230400 08007KT 3SM -DZ BR OVC004
      TEMPO 2305/2309 1SM -DZ BR OVC003
     FM230900 06005KT 1SM BR OVC003
     FM231600 02009G14KT 4SM -SN BR OVC011=

USA.gov is the U.S. government's official web portal to all federal, state and local government web resources and services.